Fort Seybert, West Virginia
Current Conditions -  °F | °C
As of 11:15 AM on Tuesday 21 Oct 2014 (Local Time) from KVBW Reporting Station
Clear Clear  
Wind Chill: 61°   Ceiling: Unl
Heat Index: 61°   Visibility: 10mi
Dew Point: 46°   Wind: 3mph
Humidity: 57%   Direction: 180°S
Pressure: 29.87"   Gusts: NA
Location:  38.6406°N, 79.2014°W
Report Text: KVBW 211515Z AUTO 18003KT 10SM CLR 16/08 A2987 RMK AO2 T01630078
Loading
Personal Weather Stations






























Interactive Weather Map
Tropical Storm Tracking
New forecast layout! Learn more

10-Day Weather Forecast

Advertisements
Track Severe Weather on mobile